createdAt,value
2018-03-04T00:01:17.856Z,58.95
2018-03-04T00:03:46.164Z,61.40
2018-03-04T00:06:13.715Z,61.70
2018-03-04T00:08:41.387Z,61.72
2018-03-04T00:11:08.990Z,62.75
2018-03-04T00:13:36.640Z,66.90
2018-03-04T00:16:04.208Z,66.12
2018-03-04T00:18:31.723Z,63.58
2018-03-04T00:20:59.291Z,62.15
2018-03-04T00:23:26.844Z,63.95
2018-03-04T00:25:54.432Z,64.50
2018-03-04T00:28:21.957Z,63.87
2018-03-04T00:30:49.495Z,69.37
2018-03-04T00:33:17.903Z,66.25
2018-03-04T00:35:45.459Z,66.32
2018-03-04T00:38:13.084Z,62.80
2018-03-04T00:40:41.412Z,67.95
2018-03-04T00:43:08.917Z,68.97
2018-03-04T00:45:37.221Z,67.55
2018-03-04T00:48:04.822Z,70.10
2018-03-04T00:50:32.381Z,66.93
2018-03-04T00:52:59.904Z,68.07
2018-03-04T00:55:27.472Z,68.05
2018-03-04T00:57:55.053Z,71.35
2018-03-04T01:00:22.717Z,68.22
2018-03-04T01:02:50.355Z,69.97
2018-03-04T01:05:17.910Z,67.75
2018-03-04T01:07:45.440Z,71.07
2018-03-04T01:10:13.752Z,71.57
2018-03-04T01:12:41.278Z,68.47
2018-03-04T01:15:09.614Z,69.25
2018-03-04T01:17:37.146Z,68.00
2018-03-04T01:20:04.688Z,71.35
2018-03-04T01:22:32.223Z,66.93
2018-03-04T01:25:00.626Z,69.30
2018-03-04T01:27:28.261Z,67.70
2018-03-04T01:29:55.797Z,70.43
2018-03-04T01:32:23.316Z,68.47
2018-03-04T01:34:50.845Z,68.00
2018-03-04T01:37:19.140Z,66.78
2018-03-04T01:39:46.679Z,67.65
2018-03-04T01:42:14.973Z,68.10
2018-03-04T01:44:42.525Z,63.58
2018-03-04T01:47:11.022Z,70.12
2018-03-04T01:49:38.574Z,68.43
2018-03-04T01:52:06.160Z,70.82
2018-03-04T01:54:33.713Z,70.20
2018-03-04T01:57:01.231Z,68.00
2018-03-04T01:59:29.564Z,68.68
2018-03-04T02:01:57.078Z,68.12
2018-03-04T02:04:25.424Z,71.03
2018-03-04T02:06:53.732Z,69.25
2018-03-04T02:09:22.121Z,72.57
2018-03-04T02:11:49.672Z,68.62
2018-03-04T02:14:17.945Z,66.45
2018-03-04T02:16:46.248Z,69.32
2018-03-04T02:19:13.775Z,70.35
2018-03-04T02:21:42.115Z,68.37
2018-03-04T02:24:09.641Z,67.25
2018-03-04T02:26:37.457Z,72.20
2018-03-04T02:29:05.013Z,64.97
2018-03-04T02:31:32.565Z,67.78
2018-03-04T02:34:00.083Z,68.10
2018-03-04T02:36:27.664Z,69.28
2018-03-04T02:38:55.301Z,69.68
2018-03-04T02:41:22.859Z,65.55
2018-03-04T02:43:50.389Z,71.70
2018-03-04T02:46:18.798Z,66.03
2018-03-04T02:48:46.420Z,68.85
2018-03-04T02:51:14.008Z,64.90
2018-03-04T02:53:41.598Z,63.20
2018-03-04T02:56:09.132Z,64.68
2018-03-04T02:58:36.669Z,65.78
2018-03-04T03:01:05.020Z,64.87
2018-03-04T03:03:32.601Z,64.90
2018-03-04T03:06:01.037Z,66.37
2018-03-04T03:08:28.583Z,63.97
2018-03-04T03:10:56.184Z,67.75
2018-03-04T03:13:23.690Z,64.50
2018-03-04T03:15:51.243Z,64.30
2018-03-04T03:18:18.825Z,64.57
2018-03-04T03:20:46.476Z,62.88
2018-03-04T03:23:14.000Z,66.78
2018-03-04T03:25:42.315Z,64.37
2018-03-04T03:28:09.887Z,62.97
2018-03-04T03:30:37.436Z,64.60
2018-03-04T03:33:04.994Z,63.20
2018-03-04T03:35:32.554Z,66.12
2018-03-04T03:38:00.096Z,60.92
2018-03-04T03:40:27.611Z,63.50
2018-03-04T03:42:55.233Z,63.05
2018-03-04T03:45:22.785Z,65.00
2018-03-04T03:47:50.415Z,67.93
2018-03-04T03:50:18.763Z,63.87
2018-03-04T03:52:46.335Z,62.28
2018-03-04T03:55:13.887Z,66.85
2018-03-04T03:57:41.397Z,65.28
2018-03-04T04:00:09.004Z,66.07
2018-03-04T04:02:36.624Z,58.87
2018-03-04T04:05:04.196Z,62.00
2018-03-04T04:07:31.712Z,62.88
2018-03-04T04:10:00.032Z,63.80
2018-03-04T04:12:27.544Z,59.50
2018-03-04T04:14:55.848Z,64.50
2018-03-04T04:17:23.419Z,59.05
2018-03-04T04:19:50.963Z,62.33
2018-03-04T04:22:18.520Z,62.95
2018-03-04T04:24:46.095Z,59.70
2018-03-04T04:27:13.659Z,59.97
2018-03-04T04:29:41.244Z,60.88
2018-03-04T04:32:08.760Z,64.03
2018-03-04T04:34:36.339Z,66.05
2018-03-04T04:37:03.862Z,61.67
2018-03-04T04:39:32.192Z,65.12
2018-03-04T04:41:59.936Z,64.87
2018-03-04T04:44:27.502Z,62.60
2018-03-04T04:46:55.031Z,63.78
2018-03-04T04:49:22.571Z,64.72
2018-03-04T04:51:50.173Z,61.67
2018-03-04T04:54:17.836Z,65.90
2018-03-04T04:56:45.396Z,63.08
2018-03-04T04:59:12.905Z,63.15
2018-03-04T05:01:40.447Z,62.08
2018-03-04T05:04:08.064Z,61.88
2018-03-04T05:06:35.936Z,63.30
2018-03-04T05:09:03.428Z,62.92
2018-03-04T05:11:30.968Z,61.67
2018-03-04T05:13:58.507Z,60.38
2018-03-04T05:16:26.056Z,59.83
2018-03-04T05:18:53.624Z,64.87
2018-03-04T05:21:21.176Z,61.92
2018-03-04T05:23:48.687Z,61.58
2018-03-04T05:26:16.304Z,61.55
2018-03-04T05:28:43.818Z,62.83
2018-03-04T05:31:11.368Z,61.88
2018-03-04T05:33:38.888Z,67.82
2018-03-04T05:36:06.443Z,65.10
2018-03-04T05:38:33.947Z,62.33
2018-03-04T05:41:01.489Z,67.47
2018-03-04T05:43:29.128Z,61.22
2018-03-04T05:45:56.642Z,62.28
2018-03-04T05:48:24.920Z,63.03
2018-03-04T05:50:53.249Z,68.93
2018-03-04T05:53:21.605Z,61.60
2018-03-04T05:55:49.178Z,64.28
2018-03-04T05:58:16.686Z,63.92
2018-03-04T06:00:44.228Z,66.57
2018-03-04T06:03:11.849Z,68.75
2018-03-04T06:05:39.405Z,65.85
2018-03-04T06:08:06.918Z,66.47
2018-03-04T06:10:34.468Z,67.07
2018-03-04T06:13:01.997Z,66.25
2018-03-04T06:15:29.573Z,64.78
2018-03-04T06:17:57.075Z,68.10
2018-03-04T06:20:25.391Z,67.05
2018-03-04T06:22:52.936Z,62.50
2018-03-04T06:25:20.599Z,64.85
2018-03-04T06:27:48.805Z,64.65
2018-03-04T06:30:16.437Z,67.47
2018-03-04T06:32:43.949Z,61.13
2018-03-04T06:35:11.568Z,63.78
2018-03-04T06:37:39.070Z,61.97
2018-03-04T06:40:06.684Z,61.22
2018-03-04T06:42:34.231Z,65.00
2018-03-04T06:45:01.771Z,62.72
2018-03-04T06:47:30.067Z,60.72
2018-03-04T06:49:57.632Z,62.05
2018-03-04T06:52:25.149Z,58.20
2018-03-04T06:54:52.703Z,62.90
2018-03-04T06:57:20.237Z,60.50
2018-03-04T06:59:57.732Z,60.97
2018-03-04T07:02:25.259Z,61.85
2018-03-04T07:04:52.806Z,62.58
2018-03-04T07:07:20.376Z,60.12
2018-03-04T07:09:49.238Z,61.37
2018-03-04T07:12:17.530Z,59.03
2018-03-04T07:14:45.150Z,58.78
2018-03-04T07:17:12.672Z,61.65
2018-03-04T07:19:40.367Z,56.92
2018-03-04T07:22:08.499Z,60.70
2018-03-04T07:24:36.039Z,57.45
2018-03-04T07:27:05.032Z,56.80
2018-03-04T07:29:32.562Z,59.22
2018-03-04T07:32:00.208Z,55.72
2018-03-04T07:34:27.759Z,55.05
2018-03-04T07:36:55.318Z,57.70
2018-03-04T07:39:22.876Z,54.83
2018-03-04T07:41:50.404Z,56.05
2018-03-04T07:44:18.942Z,53.03
2018-03-04T07:46:47.241Z,54.47
2018-03-04T07:49:15.563Z,53.20
2018-03-04T07:51:43.093Z,54.25
2018-03-04T07:54:10.707Z,54.78
2018-03-04T07:56:39.176Z,55.28
2018-03-04T07:59:06.714Z,51.13
2018-03-04T08:01:35.939Z,52.85
2018-03-04T08:04:03.488Z,52.13
2018-03-04T08:06:31.041Z,51.60
2018-03-04T08:08:58.560Z,51.95
2018-03-04T08:11:26.909Z,51.67
2018-03-04T08:13:54.404Z,51.42
2018-03-04T08:16:22.053Z,49.58
2018-03-04T08:18:50.391Z,51.67
2018-03-04T08:21:18.008Z,50.38
2018-03-04T08:23:45.514Z,55.92
2018-03-04T08:26:24.879Z,51.65
2018-03-04T08:28:53.187Z,52.20
2018-03-04T08:31:20.779Z,51.92
2018-03-04T08:33:48.307Z,48.50
2018-03-04T08:36:15.923Z,51.20
2018-03-04T08:38:43.436Z,50.53
2018-03-04T08:41:10.983Z,48.55
2018-03-04T08:43:38.571Z,51.22
2018-03-04T08:46:06.127Z,49.13
2018-03-04T08:48:33.663Z,50.00
2018-03-04T08:51:01.400Z,47.45
2018-03-04T08:53:29.710Z,48.10
2018-03-04T08:55:57.239Z,47.58
2018-03-04T08:58:25.587Z,48.85
2018-03-04T09:00:53.128Z,48.75
2018-03-04T09:03:20.662Z,49.80
2018-03-04T09:05:48.208Z,45.12
2018-03-04T09:08:15.744Z,45.33
2018-03-04T09:10:44.067Z,44.20
2018-03-04T09:13:21.570Z,45.60
2018-03-04T09:15:49.168Z,42.70
2018-03-04T09:18:17.464Z,46.95
2018-03-04T09:20:45.865Z,43.20
2018-03-04T09:23:13.457Z,41.90
2018-03-04T09:25:40.946Z,45.92
2018-03-04T09:28:09.371Z,43.55
2018-03-04T09:30:36.895Z,40.65
2018-03-04T09:33:05.232Z,41.30
2018-03-04T09:35:32.763Z,42.00
2018-03-04T09:38:00.317Z,41.33
2018-03-04T09:40:27.879Z,40.53
2018-03-04T09:42:55.478Z,41.85
2018-03-04T09:45:22.997Z,39.30
2018-03-04T09:47:50.660Z,40.60
2018-03-04T09:50:18.223Z,40.05
2018-03-04T09:52:45.781Z,42.08
2018-03-04T09:55:13.330Z,38.00
2018-03-04T09:57:40.908Z,40.88
2018-03-04T10:00:08.444Z,37.47
2018-03-04T10:02:35.984Z,40.50
2018-03-04T10:05:04.287Z,37.83
2018-03-04T10:07:31.808Z,36.78
2018-03-04T10:10:00.410Z,40.45
2018-03-04T10:12:28.020Z,35.15
2018-03-04T10:14:55.585Z,36.95
2018-03-04T10:17:23.215Z,35.20
2018-03-04T10:19:52.875Z,35.30
2018-03-04T10:22:21.860Z,34.70
2018-03-04T10:24:49.446Z,34.67
2018-03-04T10:27:17.741Z,34.95
2018-03-04T10:29:45.263Z,34.63
2018-03-04T10:32:12.851Z,31.98
2018-03-04T10:34:40.394Z,33.88
2018-03-04T10:37:08.727Z,33.90
2018-03-04T10:39:37.156Z,34.15
2018-03-04T10:42:05.516Z,34.88
2018-03-04T10:44:33.052Z,33.95
2018-03-04T10:47:00.607Z,33.40
2018-03-04T10:49:28.315Z,30.30
2018-03-04T10:51:56.623Z,33.10
2018-03-04T10:54:24.172Z,31.55
2018-03-04T10:56:51.754Z,29.20
2018-03-04T10:59:19.323Z,31.00
2018-03-04T11:01:51.833Z,32.85
2018-03-04T11:04:24.630Z,30.85
2018-03-04T11:06:53.129Z,30.45
2018-03-04T11:09:24.769Z,30.10
2018-03-04T11:11:52.482Z,30.35
2018-03-04T11:14:20.009Z,31.10
2018-03-04T11:16:47.546Z,29.55
2018-03-04T11:19:15.866Z,28.87
2018-03-04T11:21:43.821Z,30.30
2018-03-04T11:24:21.679Z,29.48
2018-03-04T11:26:50.075Z,30.05
2018-03-04T11:29:30.212Z,32.60
2018-03-04T11:32:08.558Z,30.05
2018-03-04T11:34:36.137Z,29.67
2018-03-04T11:37:03.723Z,31.62
2018-03-04T11:39:31.247Z,29.67
2018-03-04T11:41:58.821Z,30.67
2018-03-04T11:44:27.075Z,30.85
2018-03-04T11:46:54.689Z,32.47
2018-03-04T11:49:22.231Z,31.58
2018-03-04T11:51:49.952Z,29.60
2018-03-04T11:54:17.493Z,30.60
2018-03-04T11:56:45.912Z,27.35
2018-03-04T11:59:13.546Z,31.05
2018-03-04T12:01:41.867Z,29.23
2018-03-04T12:04:09.394Z,28.50
2018-03-04T12:06:36.956Z,29.00
2018-03-04T12:09:04.515Z,28.25
2018-03-04T12:11:32.222Z,28.85
2018-03-04T12:13:59.770Z,27.42
2018-03-04T12:16:27.793Z,29.37
2018-03-04T12:18:56.597Z,27.85
2018-03-04T12:21:24.145Z,25.15
2018-03-04T12:23:51.894Z,26.52
2018-03-04T12:26:19.441Z,25.30
2018-03-04T12:28:47.730Z,25.27
2018-03-04T12:31:16.039Z,22.98
2018-03-04T12:33:43.584Z,26.62
2018-03-04T12:36:11.131Z,24.73
2018-03-04T12:38:39.536Z,26.23
2018-03-04T12:41:07.484Z,25.27
2018-03-04T12:43:36.855Z,25.00
2018-03-04T12:46:05.184Z,23.48
2018-03-04T12:48:32.753Z,24.00
2018-03-04T12:51:00.334Z,24.27
2018-03-04T12:53:27.876Z,23.60
2018-03-04T12:55:55.470Z,21.23
2018-03-04T12:58:23.762Z,22.08
2018-03-04T13:00:52.087Z,22.83
2018-03-04T13:03:19.602Z,22.00
2018-03-04T13:05:48.490Z,21.40
2018-03-04T13:08:16.888Z,21.83
2018-03-04T13:10:44.436Z,21.75
2018-03-04T13:13:13.484Z,22.00
2018-03-04T13:15:41.213Z,20.88
2018-03-04T13:18:08.751Z,22.35
2018-03-04T13:20:37.095Z,22.45
2018-03-04T13:23:04.625Z,21.83
2018-03-04T13:25:32.276Z,20.92
2018-03-04T13:27:59.861Z,21.00
2018-03-04T13:30:27.447Z,22.98
2018-03-04T13:32:54.993Z,22.33
2018-03-04T13:35:22.506Z,21.30
2018-03-04T13:37:50.988Z,21.70
2018-03-04T13:40:18.578Z,21.25
2018-03-04T13:42:46.120Z,20.05
2018-03-04T13:45:13.635Z,21.95
2018-03-04T13:47:42.043Z,21.55
2018-03-04T13:50:09.548Z,24.00
2018-03-04T13:52:37.254Z,23.70
2018-03-04T13:55:05.652Z,23.55
2018-03-04T13:57:33.208Z,25.62
2018-03-04T14:00:02.371Z,23.42
2018-03-04T14:02:30.735Z,25.05
2018-03-04T14:04:58.788Z,24.45
2018-03-04T14:07:26.348Z,26.08
2018-03-04T14:09:54.009Z,25.02
2018-03-04T14:12:21.632Z,23.33
2018-03-04T14:14:49.188Z,25.00
2018-03-04T14:17:16.740Z,25.17
2018-03-04T14:19:44.380Z,24.55
2018-03-04T14:22:12.692Z,23.17
2018-03-04T14:24:40.250Z,25.20
2018-03-04T14:27:07.803Z,25.08
2018-03-04T14:29:35.313Z,23.55
2018-03-04T14:32:04.381Z,23.27
2018-03-04T14:34:31.924Z,22.10
2018-03-04T14:36:59.496Z,22.58
2018-03-04T14:39:27.057Z,23.48
2018-03-04T14:41:54.632Z,22.23
2018-03-04T14:44:22.161Z,21.12
2018-03-04T14:46:49.741Z,21.87
2018-03-04T14:49:17.271Z,20.95
2018-03-04T14:51:44.832Z,19.62
2018-03-04T14:54:12.357Z,20.25
2018-03-04T14:56:40.011Z,19.12
2018-03-04T14:59:07.554Z,19.23
2018-03-04T15:01:35.128Z,17.50
2018-03-04T15:04:02.663Z,18.05
2018-03-04T15:06:30.329Z,18.83
2018-03-04T15:08:57.854Z,16.92
2018-03-04T15:11:25.419Z,17.17
2018-03-04T15:13:52.937Z,17.37
2018-03-04T15:16:21.270Z,18.33
2018-03-04T15:18:48.800Z,19.95
2018-03-04T15:21:16.388Z,19.42
2018-03-04T15:23:43.960Z,17.55
2018-03-04T15:26:12.540Z,18.05
2018-03-04T15:28:40.094Z,17.50
2018-03-04T15:31:07.730Z,18.30
2018-03-04T15:33:35.277Z,18.27
2018-03-04T15:36:03.675Z,21.05
2018-03-04T15:38:31.236Z,19.80
2018-03-04T15:40:58.795Z,20.25
2018-03-04T15:43:26.422Z,20.83
2018-03-04T15:45:54.841Z,22.00
2018-03-04T15:48:32.295Z,21.52
2018-03-04T15:51:00.684Z,21.67
2018-03-04T15:53:28.648Z,23.92
2018-03-04T15:55:56.967Z,23.75
2018-03-04T15:58:24.613Z,22.58
2018-03-04T16:00:52.285Z,21.48
2018-03-04T16:03:19.807Z,22.75
2018-03-04T16:05:49.866Z,23.38
2018-03-04T16:08:17.382Z,22.62
2018-03-04T16:10:45.780Z,22.50
2018-03-04T16:13:14.303Z,23.55
2018-03-04T16:15:41.868Z,26.62
2018-03-04T16:18:09.855Z,23.40
2018-03-04T16:20:38.363Z,24.80
2018-03-04T16:23:05.887Z,24.17
2018-03-04T16:25:33.643Z,23.60
2018-03-04T16:28:01.240Z,23.45
2018-03-04T16:30:29.573Z,22.90
2018-03-04T16:32:57.087Z,23.10
2018-03-04T16:35:24.628Z,22.55
2018-03-04T16:37:53.388Z,23.80
2018-03-04T16:40:21.016Z,21.45
2018-03-04T16:42:48.534Z,20.40
2018-03-04T16:45:18.619Z,22.20
2018-03-04T16:47:46.123Z,22.83
2018-03-04T16:50:13.692Z,21.65
2018-03-04T16:52:41.240Z,24.08
2018-03-04T16:55:09.608Z,21.42
2018-03-04T16:57:39.814Z,21.17
2018-03-04T17:00:08.164Z,20.90
2018-03-04T17:02:35.694Z,20.33
2018-03-04T17:05:03.692Z,23.67
2018-03-04T17:07:31.314Z,22.65
2018-03-04T17:09:59.764Z,20.95
2018-03-04T17:12:27.408Z,23.35
2018-03-04T17:14:55.065Z,22.80
2018-03-04T17:17:22.668Z,22.75
2018-03-04T17:19:50.385Z,23.02
2018-03-04T17:22:17.920Z,22.10
2018-03-04T17:24:45.466Z,21.87
2018-03-04T17:27:13.066Z,21.73
2018-03-04T17:29:41.140Z,22.20
2018-03-04T17:32:08.653Z,21.70
2018-03-04T17:34:36.232Z,23.65
2018-03-04T17:37:03.803Z,23.75
2018-03-04T17:39:31.361Z,25.65
2018-03-04T17:41:58.959Z,24.85
2018-03-04T17:44:27.245Z,26.12
2018-03-04T17:46:55.554Z,27.00
2018-03-04T17:49:23.217Z,28.23
2018-03-04T17:51:50.770Z,28.38
2018-03-04T17:54:18.307Z,30.08
2018-03-04T17:56:47.635Z,29.20
2018-03-04T17:59:15.263Z,30.20
2018-03-04T18:01:43.569Z,31.48
2018-03-04T18:04:11.081Z,28.62
2018-03-04T18:06:38.612Z,30.75
2018-03-04T18:09:06.286Z,30.55
2018-03-04T18:11:33.923Z,32.35
2018-03-04T18:14:01.496Z,32.03
2018-03-04T18:16:29.049Z,33.00
2018-03-04T18:18:56.740Z,36.63
2018-03-04T18:21:24.291Z,33.53
2018-03-04T18:23:51.831Z,33.53
2018-03-04T18:26:19.681Z,33.42
2018-03-04T18:28:49.429Z,33.42
2018-03-04T18:31:16.990Z,35.03
2018-03-04T18:33:44.606Z,32.20
2018-03-04T18:36:12.164Z,35.85
2018-03-04T18:38:39.729Z,34.97
2018-03-04T18:41:07.258Z,35.15
2018-03-04T18:43:35.587Z,36.33
2018-03-04T18:46:04.979Z,36.63
2018-03-04T18:48:43.403Z,36.58
2018-03-04T18:51:10.971Z,38.55
2018-03-04T18:53:38.503Z,36.38
2018-03-04T18:56:06.039Z,36.88
2018-03-04T18:58:34.842Z,39.22
2018-03-04T19:01:02.518Z,36.28
2018-03-04T19:03:30.039Z,40.90
2018-03-04T19:06:00.470Z,36.35
2018-03-04T19:08:28.288Z,40.50
2018-03-04T19:10:58.299Z,38.00
2018-03-04T19:13:25.917Z,38.58
2018-03-04T19:15:54.314Z,36.83
2018-03-04T19:18:21.960Z,39.83
2018-03-04T19:20:49.515Z,37.40
2018-03-04T19:23:17.876Z,38.42
2018-03-04T19:25:45.473Z,38.53
2018-03-04T19:28:13.044Z,38.25
2018-03-04T19:30:40.584Z,40.58
2018-03-04T19:33:08.160Z,39.25
2018-03-04T19:35:35.686Z,39.72
2018-03-04T19:38:04.088Z,38.58
2018-03-04T19:40:31.670Z,38.13
2018-03-04T19:42:59.284Z,39.80
2018-03-04T19:45:27.578Z,39.28
2018-03-04T19:47:55.116Z,38.75
2018-03-04T19:50:23.400Z,39.20
2018-03-04T19:52:51.732Z,38.38
2018-03-04T19:55:19.332Z,38.65
2018-03-04T19:57:47.722Z,40.00
2018-03-04T20:00:15.271Z,40.03
2018-03-04T20:02:43.670Z,41.03
2018-03-04T20:05:11.180Z,39.70
2018-03-04T20:07:38.758Z,38.80
2018-03-04T20:10:06.283Z,40.00
2018-03-04T20:12:33.834Z,41.25
2018-03-04T20:15:01.369Z,41.80
2018-03-04T20:17:29.025Z,40.35
2018-03-04T20:19:56.544Z,39.75
2018-03-04T20:22:24.102Z,39.17
2018-03-04T20:24:51.731Z,40.85
2018-03-04T20:27:19.308Z,38.55
2018-03-04T20:29:46.881Z,39.60
2018-03-04T20:32:14.452Z,39.80
2018-03-04T20:34:42.044Z,40.83
2018-03-04T20:37:09.876Z,39.50
2018-03-04T20:39:37.464Z,40.30
2018-03-04T20:42:05.828Z,38.70
2018-03-04T20:44:34.107Z,41.83
2018-03-04T20:47:02.424Z,36.40
2018-03-04T20:49:30.004Z,38.13
2018-03-04T20:51:57.603Z,37.30
2018-03-04T20:54:25.933Z,40.40
2018-03-04T20:56:53.490Z,39.30
2018-03-04T20:59:21.036Z,38.05
2018-03-04T21:01:48.599Z,36.55
2018-03-04T21:04:16.203Z,37.85
2018-03-04T21:06:43.763Z,39.53
2018-03-04T21:09:12.087Z,39.60
2018-03-04T21:11:39.644Z,36.75
2018-03-04T21:14:07.327Z,38.10
2018-03-04T21:16:34.917Z,35.70
2018-03-04T21:19:02.475Z,37.72
2018-03-04T21:21:30.072Z,37.58
2018-03-04T21:23:58.094Z,37.80
2018-03-04T21:26:25.730Z,36.60
2018-03-04T21:28:53.295Z,38.38
2018-03-04T21:31:20.842Z,36.80
2018-03-04T21:33:48.349Z,35.83
2018-03-04T21:36:27.745Z,34.67
2018-03-04T21:38:55.235Z,35.10
2018-03-04T21:41:22.821Z,35.88
2018-03-04T21:43:51.189Z,32.83
2018-03-04T21:46:18.750Z,35.67
2018-03-04T21:48:56.227Z,33.30
2018-03-04T21:51:23.779Z,32.50
2018-03-04T21:53:51.414Z,30.15
2018-03-04T21:56:18.950Z,31.90
2018-03-04T21:58:46.471Z,28.55
2018-03-04T22:01:14.057Z,26.17
2018-03-04T22:03:42.355Z,28.17
2018-03-04T22:06:09.918Z,29.00
2018-03-04T22:08:37.437Z,25.23
2018-03-04T22:11:05.749Z,24.60
2018-03-04T22:13:33.899Z,24.37
2018-03-04T22:16:12.970Z,26.02
2018-03-04T22:18:40.508Z,26.23
2018-03-04T22:21:08.058Z,23.67
2018-03-04T22:23:36.356Z,23.20
2018-03-04T22:26:03.887Z,25.08
2018-03-04T22:28:32.313Z,22.92
2018-03-04T22:30:59.841Z,20.88
2018-03-04T22:33:27.354Z,21.45
2018-03-04T22:35:54.896Z,17.58
2018-03-04T22:38:22.427Z,17.67
2018-03-04T22:40:50.084Z,16.05
2018-03-04T22:43:17.586Z,13.75
2018-03-04T22:45:45.146Z,12.75
2018-03-04T22:48:12.666Z,10.68
2018-03-04T22:50:40.207Z,10.50
2018-03-04T22:53:07.783Z,8.90
2018-03-04T22:55:35.327Z,7.85
2018-03-04T22:58:02.876Z,5.70
2018-03-04T23:00:31.223Z,5.72
2018-03-04T23:02:58.756Z,5.35
2018-03-04T23:05:26.304Z,5.25
2018-03-04T23:07:53.848Z,5.65
2018-03-04T23:10:21.399Z,6.10
2018-03-04T23:12:48.937Z,5.80
2018-03-04T23:15:17.249Z,5.12
2018-03-04T23:17:44.979Z,5.57
2018-03-04T23:20:13.257Z,7.40
2018-03-04T23:22:41.557Z,6.65
2018-03-04T23:25:09.063Z,4.25
2018-03-04T23:27:36.596Z,6.95
2018-03-04T23:30:04.104Z,4.85
2018-03-04T23:32:32.403Z,4.82
2018-03-04T23:34:59.961Z,4.80
2018-03-04T23:37:27.505Z,6.35
2018-03-04T23:39:55.780Z,4.53
2018-03-04T23:42:24.192Z,5.47
2018-03-04T23:44:51.692Z,4.30
2018-03-04T23:47:20.743Z,4.70
2018-03-04T23:49:48.257Z,3.80
2018-03-04T23:52:15.805Z,3.85
2018-03-04T23:54:43.330Z,5.03
2018-03-04T23:57:10.976Z,4.35
2018-03-04T23:59:38.549Z,3.40
